createdAt,value
2023-02-04T00:00:45.821Z,99417.34
2023-02-04T00:01:27.903Z,99429.94
2023-02-04T00:02:08.799Z,99444.69
2023-02-04T00:02:55.848Z,99397.13
2023-02-04T00:03:49.792Z,99441.78
2023-02-04T00:04:43.821Z,99460.81
2023-02-04T00:05:38.849Z,99466.00
2023-02-04T00:06:32.832Z,99430.72
2023-02-04T00:07:26.830Z,99423.59
2023-02-04T00:08:13.822Z,99420.06
2023-02-04T00:08:47.859Z,99447.63
2023-02-04T00:09:34.823Z,99433.72
2023-02-04T00:10:09.849Z,99447.41
2023-02-04T00:10:56.797Z,99445.88
2023-02-04T00:11:30.937Z,99419.19
2023-02-04T00:12:17.790Z,99418.59
2023-02-04T00:12:51.886Z,99438.09
2023-02-04T00:13:39.823Z,99458.63
2023-02-04T00:14:13.900Z,99413.00
2023-02-04T00:15:00.774Z,99448.34
2023-02-04T00:15:40.874Z,99460.31
2023-02-04T00:16:20.778Z,99432.63
2023-02-04T00:17:01.869Z,99435.84
2023-02-04T00:17:41.885Z,99449.31
2023-02-04T00:18:22.198Z,99463.09
2023-02-04T00:19:02.800Z,99439.81
2023-02-04T00:19:43.850Z,99430.22
2023-02-04T00:20:25.928Z,99431.38
2023-02-04T00:21:05.947Z,99445.72
2023-02-04T00:21:45.787Z,99459.47
2023-02-04T00:22:28.214Z,99455.06
2023-02-04T00:23:08.790Z,99429.88
2023-02-04T00:23:51.072Z,99491.47
2023-02-04T00:24:30.849Z,99453.13
2023-02-04T00:25:12.128Z,99476.94
2023-02-04T00:25:52.775Z,99473.31
2023-02-04T00:26:32.848Z,99459.69
2023-02-04T00:27:13.763Z,99440.06
2023-02-04T00:27:53.869Z,99437.81
2023-02-04T00:28:33.840Z,99457.03
2023-02-04T00:29:13.848Z,99450.00
2023-02-04T00:29:53.786Z,99453.00
2023-02-04T00:30:36.537Z,99459.06
2023-02-04T00:31:16.885Z,99469.34
2023-02-04T00:31:56.908Z,99473.72
2023-02-04T00:32:36.816Z,99457.53
2023-02-04T00:33:16.855Z,99472.78
2023-02-04T00:33:56.774Z,99502.41
2023-02-04T00:34:36.857Z,99470.16
2023-02-04T00:35:17.870Z,99489.47
2023-02-04T00:35:59.036Z,99465.44
2023-02-04T00:36:38.794Z,99479.09
2023-02-04T00:37:18.851Z,99457.13
2023-02-04T00:37:58.780Z,99477.22
2023-02-04T00:38:38.813Z,99462.16
2023-02-04T00:39:19.771Z,99507.16
2023-02-04T00:39:59.829Z,99480.31
2023-02-04T00:40:39.818Z,99491.69
2023-02-04T00:41:20.234Z,99504.06
2023-02-04T00:42:00.765Z,99496.41
2023-02-04T00:42:40.805Z,99486.78
2023-02-04T00:43:20.780Z,99503.22
2023-02-04T00:44:00.835Z,99494.53
2023-02-04T00:44:42.759Z,99522.84
2023-02-04T00:45:22.885Z,99497.44
2023-02-04T00:46:02.852Z,99493.31
2023-02-04T00:46:42.844Z,99496.03
2023-02-04T00:47:23.761Z,99505.00
2023-02-04T00:48:03.839Z,99507.31
2023-02-04T00:48:43.739Z,99524.28
2023-02-04T00:49:23.866Z,99515.97
2023-02-04T00:50:03.774Z,99538.69
2023-02-04T00:50:43.900Z,99557.66
2023-02-04T00:51:24.783Z,99505.31
2023-02-04T00:52:04.839Z,99551.16
2023-02-04T00:52:44.764Z,99549.66
2023-02-04T00:53:24.836Z,99519.97
2023-02-04T00:54:04.747Z,99543.38
2023-02-04T00:54:44.798Z,99551.56
2023-02-04T00:55:25.743Z,99562.88
2023-02-04T00:56:05.815Z,99576.22
2023-02-04T00:56:45.780Z,99557.34
2023-02-04T00:57:25.812Z,99593.59
2023-02-04T00:58:05.753Z,99566.97
2023-02-04T00:58:45.916Z,99572.09
2023-02-04T00:59:26.738Z,99610.56
2023-02-04T01:00:06.833Z,99591.50
2023-02-04T01:00:46.763Z,99605.22
2023-02-04T01:01:26.808Z,99614.34
2023-02-04T01:02:06.768Z,99617.78
2023-02-04T01:02:46.951Z,99609.31
2023-02-04T01:03:27.750Z,99617.00
2023-02-04T01:04:07.839Z,99634.13
2023-02-04T01:04:47.751Z,99627.31
2023-02-04T01:05:27.849Z,99621.41
2023-02-04T01:06:07.719Z,99625.38
2023-02-04T01:06:47.814Z,99656.78
2023-02-04T01:07:28.783Z,99662.47
2023-02-04T01:08:08.835Z,99659.06
2023-02-04T01:08:48.742Z,99620.06
2023-02-04T01:09:28.807Z,99672.28
2023-02-04T01:10:09.746Z,99666.78
2023-02-04T01:11:03.755Z,99675.03
2023-02-04T01:11:57.746Z,99674.38
2023-02-04T01:12:44.758Z,99683.41
2023-02-04T01:13:18.846Z,99705.53
2023-02-04T01:14:06.744Z,99711.16
2023-02-04T01:14:40.771Z,99717.78
2023-02-04T01:15:28.782Z,99690.59
2023-02-04T01:16:09.871Z,99712.25
2023-02-04T01:16:49.827Z,99702.72
2023-02-04T01:17:29.786Z,99715.38
2023-02-04T01:18:09.751Z,99720.84
2023-02-04T01:18:49.872Z,99717.56
2023-02-04T01:19:29.720Z,99719.84
2023-02-04T01:20:10.811Z,99703.19
2023-02-04T01:20:50.710Z,99736.94
2023-02-04T01:21:31.783Z,99735.56
2023-02-04T01:22:11.735Z,99735.31
2023-02-04T01:22:51.831Z,99723.97
2023-02-04T01:23:31.780Z,99766.81
2023-02-04T01:24:12.796Z,99743.00
2023-02-04T01:24:52.732Z,99768.25
2023-02-04T01:25:32.789Z,99780.81
2023-02-04T01:26:12.715Z,99777.72
2023-02-04T01:26:52.795Z,99783.03
2023-02-04T01:27:32.709Z,99789.41
2023-02-04T01:28:13.867Z,99772.72
2023-02-04T01:28:54.762Z,99797.97
2023-02-04T01:29:34.794Z,99771.53
2023-02-04T01:30:15.744Z,99792.81
2023-02-04T01:30:55.880Z,99821.25
2023-02-04T01:31:37.768Z,99810.16
2023-02-04T01:32:18.782Z,99830.97
2023-02-04T01:32:58.711Z,99819.28
2023-02-04T01:33:38.769Z,99817.03
2023-02-04T01:34:18.718Z,99833.19
2023-02-04T01:34:58.787Z,99817.03
2023-02-04T01:35:38.741Z,99826.97
2023-02-04T01:36:21.681Z,99826.97
2023-02-04T01:37:01.714Z,99837.41
2023-02-04T01:37:41.767Z,99849.63
2023-02-04T01:38:21.700Z,99850.16
2023-02-04T01:39:01.837Z,99881.22
2023-02-04T01:39:43.732Z,99860.56
2023-02-04T01:40:24.768Z,99863.41
2023-02-04T01:41:04.707Z,99873.00
2023-02-04T01:41:44.787Z,99872.63
2023-02-04T01:42:24.702Z,99888.06
2023-02-04T01:43:04.788Z,99900.66
2023-02-04T01:43:44.707Z,99894.81
2023-02-04T01:44:25.800Z,99927.63
2023-02-04T01:45:05.750Z,99906.66
2023-02-04T01:45:45.827Z,99923.34
2023-02-04T01:46:25.689Z,99934.66
2023-02-04T01:47:05.779Z,99891.94
2023-02-04T01:47:46.692Z,99919.66
2023-02-04T01:48:28.984Z,99939.63
2023-02-04T01:49:08.725Z,99917.97
2023-02-04T01:49:48.765Z,99934.31
2023-02-04T01:50:29.203Z,99920.53
2023-02-04T01:51:13.782Z,99932.66
2023-02-04T01:51:53.685Z,99960.41
2023-02-04T01:52:38.177Z,99953.25
2023-02-04T01:53:25.697Z,99972.88
2023-02-04T01:54:06.763Z,99934.97
2023-02-04T01:54:46.702Z,99974.94
2023-02-04T01:55:39.705Z,99961.56
2023-02-04T01:56:20.496Z,99970.94
2023-02-04T01:57:08.691Z,99983.94
2023-02-04T01:57:43.252Z,99973.41
2023-02-04T01:58:31.713Z,99989.09
2023-02-04T01:59:12.755Z,100014.50
2023-02-04T02:00:01.671Z,99996.59
2023-02-04T02:00:35.534Z,100005.00
2023-02-04T02:01:53.757Z,99993.31
2023-02-04T02:02:58.762Z,100032.91
2023-02-04T02:03:32.384Z,100046.94
2023-02-04T02:04:13.683Z,100015.09
2023-02-04T02:04:47.738Z,100047.94
2023-02-04T02:05:29.792Z,100031.38
2023-02-04T02:06:10.677Z,100031.66
2023-02-04T02:06:48.723Z,100050.47
2023-02-04T02:07:28.678Z,100047.78
2023-02-04T02:08:10.776Z,100060.47
2023-02-04T02:08:50.684Z,100050.59
2023-02-04T02:09:34.761Z,100067.03
2023-02-04T02:10:17.712Z,100077.19
2023-02-04T02:10:58.735Z,100046.38
2023-02-04T02:11:39.669Z,100091.63
2023-02-04T02:12:19.726Z,100066.41
2023-02-04T02:13:01.708Z,100078.38
2023-02-04T02:13:41.719Z,100085.38
2023-02-04T02:14:22.685Z,100079.19
2023-02-04T02:15:03.727Z,100080.50
2023-02-04T02:15:43.680Z,100080.97
2023-02-04T02:16:24.746Z,100103.22
2023-02-04T02:17:04.660Z,100101.53
2023-02-04T02:17:45.730Z,100112.44
2023-02-04T02:18:25.666Z,100097.00
2023-02-04T02:19:06.720Z,100112.31
2023-02-04T02:19:46.646Z,100091.09
2023-02-04T02:20:33.094Z,100093.75
2023-02-04T02:21:16.660Z,100111.53
2023-02-04T02:22:05.019Z,100114.31
2023-02-04T02:23:24.654Z,100133.28
2023-02-04T02:24:07.657Z,100121.38
2023-02-04T02:24:47.724Z,100138.50
2023-02-04T02:25:27.714Z,100138.53
2023-02-04T02:26:07.706Z,100149.84
2023-02-04T02:26:47.643Z,100145.00
2023-02-04T02:27:28.722Z,100139.50
2023-02-04T02:28:11.704Z,100161.06
2023-02-04T02:28:54.669Z,100170.38
2023-02-04T02:29:29.739Z,100188.84
2023-02-04T02:30:04.544Z,100169.25
2023-02-04T02:30:45.781Z,100193.47
2023-02-04T02:31:23.888Z,100200.16
2023-02-04T02:31:58.096Z,100195.84
2023-02-04T02:32:38.630Z,100196.81
2023-02-04T02:33:14.787Z,100196.50
2023-02-04T02:33:48.612Z,100193.97
2023-02-04T02:34:29.662Z,100202.66
2023-02-04T02:35:03.734Z,100227.53
2023-02-04T02:35:37.376Z,100200.97
2023-02-04T02:36:17.636Z,100240.66
2023-02-04T02:36:51.716Z,100230.09
2023-02-04T02:37:25.450Z,100222.03
2023-02-04T02:38:06.633Z,100241.81
2023-02-04T02:38:40.722Z,100246.91
2023-02-04T02:39:14.356Z,100237.72
2023-02-04T02:39:54.643Z,100243.97
2023-02-04T02:40:29.125Z,100254.84
2023-02-04T02:41:03.820Z,100276.75
2023-02-04T02:41:43.643Z,100270.72
2023-02-04T02:42:22.688Z,100274.19
2023-02-04T02:42:56.379Z,100276.91
2023-02-04T02:43:37.631Z,100281.78
2023-02-04T02:44:11.690Z,100281.72
2023-02-04T02:44:46.092Z,100268.56
2023-02-04T02:45:35.670Z,100277.19
2023-02-04T02:46:10.157Z,100288.50
2023-02-04T02:46:44.660Z,100286.63
2023-02-04T02:47:27.653Z,100313.09
2023-02-04T02:48:03.790Z,100284.91
2023-02-04T02:48:37.318Z,100298.00
2023-02-04T02:49:23.624Z,100293.19
2023-02-04T02:49:59.687Z,100299.38
2023-02-04T02:50:34.042Z,100321.91
2023-02-04T02:51:13.672Z,100315.06
2023-02-04T02:51:47.677Z,100314.28
2023-02-04T02:52:22.817Z,100324.16
2023-02-04T02:53:03.606Z,100340.13
2023-02-04T02:53:37.704Z,100318.03
2023-02-04T02:54:24.276Z,100337.81
2023-02-04T02:55:04.622Z,100330.63
2023-02-04T02:55:38.701Z,100345.03
2023-02-04T02:56:12.301Z,100336.78
2023-02-04T02:56:52.637Z,100352.28
2023-02-04T02:57:29.753Z,100338.22
2023-02-04T02:58:03.427Z,100350.63
2023-02-04T02:58:44.615Z,100346.53
2023-02-04T02:59:22.788Z,100360.22
2023-02-04T02:59:56.303Z,100345.22
2023-02-04T03:00:36.629Z,100355.69
2023-02-04T03:01:13.762Z,100378.03
2023-02-04T03:01:51.146Z,100369.16
2023-02-04T03:02:31.719Z,100369.94
2023-02-04T03:03:22.248Z,100381.28
2023-02-04T03:04:09.604Z,100382.81
2023-02-04T03:04:53.668Z,100357.03
2023-02-04T03:05:47.582Z,100382.69
2023-02-04T03:06:28.669Z,100383.84
2023-02-04T03:07:16.634Z,100395.59
2023-02-04T03:07:57.650Z,100402.44
2023-02-04T03:08:52.600Z,100370.28
2023-02-04T03:09:47.596Z,100402.63
2023-02-04T03:10:41.609Z,100398.19
2023-02-04T03:11:36.581Z,100408.22
2023-02-04T03:12:30.604Z,100396.66
2023-02-04T03:13:19.622Z,100434.44
2023-02-04T03:13:53.654Z,100402.03
2023-02-04T03:14:41.599Z,100425.13
2023-02-04T03:15:15.646Z,100425.72
2023-02-04T03:16:02.657Z,100409.44
2023-02-04T03:16:37.947Z,100448.19
2023-02-04T03:17:24.578Z,100434.44
2023-02-04T03:17:58.711Z,100438.47
2023-02-04T03:18:39.595Z,100430.69
2023-02-04T03:19:19.656Z,100434.16
2023-02-04T03:20:00.593Z,100442.28
2023-02-04T03:20:40.978Z,100437.34
2023-02-04T03:21:20.584Z,100465.81
2023-02-04T03:22:01.655Z,100448.56
2023-02-04T03:22:41.585Z,100472.91
2023-02-04T03:23:21.831Z,100459.03
2023-02-04T03:24:03.588Z,100466.16
2023-02-04T03:24:43.645Z,100492.56
2023-02-04T03:25:23.581Z,100457.00
2023-02-04T03:26:03.653Z,100474.97
2023-02-04T03:26:44.586Z,100513.16
2023-02-04T03:27:25.640Z,100498.84
2023-02-04T03:28:06.751Z,100514.09
2023-02-04T03:28:48.643Z,100524.47
2023-02-04T03:29:29.889Z,100503.66
2023-02-04T03:30:11.639Z,100504.66
2023-02-04T03:31:02.625Z,100520.22
2023-02-04T03:31:43.683Z,100539.25
2023-02-04T03:32:23.585Z,100536.22
2023-02-04T03:33:17.589Z,100548.16
2023-02-04T03:34:11.578Z,100547.56
2023-02-04T03:34:51.614Z,100557.19
2023-02-04T03:35:31.696Z,100533.56
2023-02-04T03:36:12.561Z,100570.78
2023-02-04T03:36:52.632Z,100563.19
2023-02-04T03:37:33.566Z,100581.06
2023-02-04T03:38:13.627Z,100565.38
2023-02-04T03:38:53.580Z,100579.22
2023-02-04T03:39:33.711Z,100564.34
2023-02-04T03:40:15.607Z,100583.53
2023-02-04T03:40:55.763Z,100597.56
2023-02-04T03:41:36.574Z,100597.56
2023-02-04T03:42:17.683Z,100601.59
2023-02-04T03:42:57.547Z,100608.97
2023-02-04T03:43:37.633Z,100605.19
2023-02-04T03:44:17.556Z,100613.78
2023-02-04T03:44:57.652Z,100612.06
2023-02-04T03:45:45.360Z,100605.47
2023-02-04T03:46:27.385Z,100627.31
2023-02-04T03:47:07.586Z,100603.03
2023-02-04T03:47:47.699Z,100603.66
2023-02-04T03:48:27.558Z,100614.78
2023-02-04T03:49:07.639Z,100620.69
2023-02-04T03:49:47.575Z,100628.72
2023-02-04T03:50:27.668Z,100629.53
2023-02-04T03:51:07.564Z,100641.38
2023-02-04T03:51:47.642Z,100644.69
2023-02-04T03:52:27.575Z,100628.53
2023-02-04T03:53:07.639Z,100645.03
2023-02-04T03:53:47.557Z,100635.34
2023-02-04T03:54:27.628Z,100659.63
2023-02-04T03:55:07.559Z,100641.91
2023-02-04T03:55:47.610Z,100652.06
2023-02-04T03:56:27.607Z,100665.28
2023-02-04T03:57:07.707Z,100675.13
2023-02-04T03:57:47.548Z,100654.00
2023-02-04T03:58:27.619Z,100683.16
2023-02-04T03:59:07.557Z,100682.31
2023-02-04T03:59:47.614Z,100689.34
2023-02-04T04:00:27.554Z,100670.44
2023-02-04T04:01:07.612Z,100693.44
2023-02-04T04:01:47.594Z,100687.72
2023-02-04T04:02:28.641Z,100681.50
2023-02-04T04:03:08.571Z,100698.25
2023-02-04T04:04:02.569Z,100657.44
2023-02-04T04:04:56.557Z,100687.75
2023-02-04T04:05:50.545Z,100689.91
2023-02-04T04:06:44.539Z,100705.63
2023-02-04T04:07:24.566Z,100695.16
2023-02-04T04:08:04.619Z,100716.47
2023-02-04T04:08:45.543Z,100711.47
2023-02-04T04:09:25.614Z,100731.63
2023-02-04T04:10:05.527Z,100721.88
2023-02-04T04:10:45.974Z,100731.31
2023-02-04T04:11:25.559Z,100735.09
2023-02-04T04:12:05.598Z,100734.22
2023-02-04T04:12:45.577Z,100720.19
2023-02-04T04:13:25.659Z,100721.13
2023-02-04T04:14:05.536Z,100748.56
2023-02-04T04:14:45.589Z,100746.50
2023-02-04T04:15:25.526Z,100755.97
2023-02-04T04:16:05.610Z,100745.91
2023-02-04T04:16:45.523Z,100739.59
2023-02-04T04:17:25.579Z,100761.72
2023-02-04T04:18:05.568Z,100739.75
2023-02-04T04:18:45.599Z,100767.13
2023-02-04T04:19:25.531Z,100750.38
2023-02-04T04:20:05.830Z,100750.75
2023-02-04T04:20:45.537Z,100772.44
2023-02-04T04:21:25.580Z,100755.63
2023-02-04T04:22:05.519Z,100782.66
2023-02-04T04:22:46.633Z,100760.41
2023-02-04T04:23:26.529Z,100772.97
2023-02-04T04:24:07.663Z,100795.44
2023-02-04T04:24:49.526Z,100795.66
2023-02-04T04:25:29.609Z,100790.41
2023-02-04T04:26:09.531Z,100809.09
2023-02-04T04:26:49.582Z,100802.50
2023-02-04T04:27:29.540Z,100807.31
2023-02-04T04:28:09.697Z,100784.31
2023-02-04T04:28:49.520Z,100791.81
2023-02-04T04:29:29.590Z,100810.47
2023-02-04T04:30:10.505Z,100791.94
2023-02-04T04:30:50.596Z,100799.50
2023-02-04T04:31:30.597Z,100794.31
2023-02-04T04:32:10.651Z,100810.53
2023-02-04T04:32:50.522Z,100798.41
2023-02-04T04:33:30.587Z,100825.72
2023-02-04T04:34:10.524Z,100816.47
2023-02-04T04:34:50.566Z,100821.97
2023-02-04T04:35:30.501Z,100836.56
2023-02-04T04:36:11.552Z,100841.72
2023-02-04T04:36:51.492Z,100820.75
2023-02-04T04:37:31.628Z,100839.63
2023-02-04T04:38:11.502Z,100841.13
2023-02-04T04:38:51.569Z,100838.16
2023-02-04T04:39:32.516Z,100831.50
2023-02-04T04:40:13.618Z,100851.06
2023-02-04T04:40:53.505Z,100844.66
2023-02-04T04:41:33.560Z,100833.88
2023-02-04T04:42:13.482Z,100843.78
2023-02-04T04:42:53.561Z,100848.53
2023-02-04T04:43:33.475Z,100837.47
2023-02-04T04:44:13.579Z,100840.06
2023-02-04T04:44:53.518Z,100859.09
2023-02-04T04:45:33.588Z,100849.25
2023-02-04T04:46:13.493Z,100869.44
2023-02-04T04:46:53.579Z,100853.03
2023-02-04T04:47:33.486Z,100834.16
2023-02-04T04:48:13.556Z,100863.81
2023-02-04T04:48:53.468Z,100867.94
2023-02-04T04:49:33.595Z,100860.84
2023-02-04T04:50:14.562Z,100855.00
2023-02-04T04:50:55.568Z,100879.72
2023-02-04T04:51:38.478Z,100881.38
2023-02-04T04:52:18.542Z,100864.88
2023-02-04T04:52:58.495Z,100868.66
2023-02-04T04:53:38.565Z,100859.22
2023-02-04T04:54:18.480Z,100872.50
2023-02-04T04:54:58.568Z,100872.13
2023-02-04T04:55:39.484Z,100875.47
2023-02-04T04:56:19.518Z,100883.09
2023-02-04T04:56:59.535Z,100897.63
2023-02-04T04:57:39.610Z,100895.38
2023-02-04T04:58:19.479Z,100836.25
2023-02-04T04:58:59.563Z,100893.50
2023-02-04T04:59:39.474Z,100893.28
2023-02-04T05:00:25.530Z,100892.25
2023-02-04T05:01:05.519Z,100863.50
2023-02-04T05:01:45.553Z,100879.19
2023-02-04T05:02:48.464Z,100870.72
2023-02-04T05:03:35.577Z,100892.84
2023-02-04T05:04:16.479Z,100907.50
2023-02-04T05:04:56.578Z,100907.94
2023-02-04T05:05:36.472Z,100913.06
2023-02-04T05:06:23.498Z,100905.81
2023-02-04T05:07:17.462Z,100921.38
2023-02-04T05:08:11.458Z,100886.88
2023-02-04T05:09:08.463Z,100917.81
2023-02-04T05:10:02.512Z,100913.22
2023-02-04T05:10:57.488Z,100933.38
2023-02-04T05:11:44.504Z,100927.78
2023-02-04T05:12:18.606Z,100929.00
2023-02-04T05:13:05.457Z,100940.16
2023-02-04T05:13:39.528Z,100927.88
2023-02-04T05:14:26.454Z,100923.38
2023-02-04T05:15:00.555Z,100930.00
2023-02-04T05:15:48.454Z,100934.31
2023-02-04T05:16:22.616Z,100950.50
2023-02-04T05:17:09.517Z,100928.41
2023-02-04T05:17:43.571Z,100945.38
2023-02-04T05:18:30.459Z,100950.78
2023-02-04T05:19:04.526Z,100957.09
2023-02-04T05:19:51.471Z,100945.09
2023-02-04T05:20:25.524Z,100947.59
2023-02-04T05:21:13.458Z,100944.13
2023-02-04T05:21:47.517Z,100955.13
2023-02-04T05:22:34.464Z,100974.25
2023-02-04T05:23:08.527Z,100967.81
2023-02-04T05:23:55.461Z,100959.06
2023-02-04T05:24:29.532Z,100964.50
2023-02-04T05:25:17.477Z,100981.66
2023-02-04T05:25:51.523Z,100965.06
2023-02-04T05:26:39.439Z,100979.22
2023-02-04T05:27:13.519Z,100963.50
2023-02-04T05:27:53.492Z,100986.72
2023-02-04T05:28:33.495Z,100998.88
2023-02-04T05:29:13.437Z,100991.78
2023-02-04T05:29:53.523Z,100972.03
2023-02-04T05:30:33.894Z,100986.91
2023-02-04T05:31:14.611Z,100980.72
2023-02-04T05:31:54.456Z,100988.31
2023-02-04T05:32:34.579Z,101005.19
2023-02-04T05:33:14.461Z,100993.69
2023-02-04T05:33:54.593Z,100998.41
2023-02-04T05:34:34.459Z,100998.97
2023-02-04T05:35:15.493Z,101013.69
2023-02-04T05:35:55.443Z,100999.22
2023-02-04T05:36:35.521Z,100997.88
2023-02-04T05:37:15.442Z,101002.53
2023-02-04T05:37:55.533Z,101016.88
2023-02-04T05:38:35.462Z,101038.66
2023-02-04T05:39:15.492Z,101018.34
2023-02-04T05:39:55.431Z,101021.66
2023-02-04T05:40:35.501Z,101011.91
2023-02-04T05:41:15.429Z,101024.19
2023-02-04T05:41:55.484Z,101013.34
2023-02-04T05:42:35.438Z,101032.09
2023-02-04T05:43:15.507Z,101037.00
2023-02-04T05:43:55.459Z,101035.03
2023-02-04T05:44:35.516Z,101036.91
2023-02-04T05:45:25.445Z,101054.78
2023-02-04T05:46:05.602Z,101054.69
2023-02-04T05:46:45.417Z,101033.91
2023-02-04T05:47:25.469Z,101047.38
2023-02-04T05:48:05.414Z,101060.78
2023-02-04T05:48:45.504Z,101048.06
2023-02-04T05:49:25.462Z,101054.19
2023-02-04T05:50:06.348Z,101056.81
2023-02-04T05:50:46.427Z,101055.03
2023-02-04T05:51:26.517Z,101058.47
2023-02-04T05:52:06.420Z,101058.88
2023-02-04T05:52:46.586Z,101044.72
2023-02-04T05:53:26.414Z,101061.47
2023-02-04T05:54:06.475Z,101058.66
2023-02-04T05:54:47.477Z,101061.13
2023-02-04T05:55:27.580Z,101051.78
2023-02-04T05:56:07.428Z,101064.38
2023-02-04T05:56:47.523Z,101064.19
2023-02-04T05:57:27.428Z,101074.78
2023-02-04T05:58:07.543Z,101070.50
2023-02-04T05:58:47.415Z,101075.97
2023-02-04T05:59:27.468Z,101076.00
2023-02-04T06:00:07.433Z,101096.59
2023-02-04T06:00:47.479Z,101074.00
2023-02-04T06:01:27.394Z,101088.31
2023-02-04T06:02:07.479Z,101080.94
2023-02-04T06:02:48.443Z,101085.34
2023-02-04T06:03:28.608Z,101088.72
2023-02-04T06:04:08.446Z,101082.47
2023-02-04T06:04:48.539Z,101080.69
2023-02-04T06:05:29.436Z,101101.75
2023-02-04T06:06:09.500Z,101114.50
2023-02-04T06:06:50.382Z,101106.84
2023-02-04T06:07:30.474Z,101104.19
2023-02-04T06:08:11.383Z,101093.41
2023-02-04T06:08:51.477Z,101112.53
2023-02-04T06:09:31.450Z,101096.91
2023-02-04T06:10:11.484Z,101106.22
2023-02-04T06:10:52.426Z,101137.69
2023-02-04T06:11:32.461Z,101141.38
2023-02-04T06:12:12.393Z,101134.69
2023-02-04T06:12:52.466Z,101129.31
2023-02-04T06:13:32.385Z,101151.84
2023-02-04T06:14:12.474Z,101137.13
2023-02-04T06:14:52.377Z,101129.03
2023-02-04T06:15:32.456Z,101149.50
2023-02-04T06:16:14.912Z,101149.16
2023-02-04T06:16:55.494Z,101132.53
2023-02-04T06:17:35.428Z,101132.06
2023-02-04T06:18:15.494Z,101137.00
2023-02-04T06:18:55.392Z,101157.63
2023-02-04T06:19:35.455Z,101156.44
2023-02-04T06:20:17.385Z,101137.94
2023-02-04T06:20:57.430Z,101153.88
2023-02-04T06:21:37.439Z,101150.91
2023-02-04T06:22:17.538Z,101143.50
2023-02-04T06:22:58.386Z,101160.63
2023-02-04T06:23:39.491Z,101157.97
2023-02-04T06:24:19.374Z,101170.59
2023-02-04T06:24:59.447Z,101167.91
2023-02-04T06:25:39.369Z,101188.09
2023-02-04T06:26:19.437Z,101190.03
2023-02-04T06:26:59.395Z,101167.94
2023-02-04T06:27:39.732Z,101185.50
2023-02-04T06:28:19.441Z,101177.38
2023-02-04T06:29:00.452Z,101183.72
2023-02-04T06:29:40.394Z,101177.13
2023-02-04T06:30:21.440Z,101190.53
2023-02-04T06:31:01.445Z,101160.44
2023-02-04T06:31:41.601Z,101179.56
2023-02-04T06:32:21.398Z,101176.47
2023-02-04T06:33:01.488Z,101197.47
2023-02-04T06:33:43.376Z,101173.81
2023-02-04T06:34:23.427Z,101201.59
2023-02-04T06:35:03.379Z,101195.19
2023-02-04T06:35:43.481Z,101205.50
2023-02-04T06:36:23.381Z,101183.56
2023-02-04T06:37:03.488Z,101208.59
2023-02-04T06:37:43.417Z,101200.38
2023-02-04T06:38:23.423Z,101199.75
2023-02-04T06:39:04.366Z,101204.56
2023-02-04T06:39:44.573Z,101185.03
2023-02-04T06:40:24.360Z,101187.97
2023-02-04T06:41:04.432Z,101203.81
2023-02-04T06:41:44.373Z,101193.50
2023-02-04T06:42:25.329Z,101210.84
2023-02-04T06:43:05.380Z,101211.19
2023-02-04T06:43:45.414Z,101211.72
2023-02-04T06:44:25.354Z,101204.75
2023-02-04T06:45:05.427Z,101209.00
2023-02-04T06:45:45.393Z,101222.66
2023-02-04T06:46:25.481Z,101228.25
2023-02-04T06:47:05.337Z,101207.78
2023-02-04T06:47:45.494Z,101222.56
2023-02-04T06:48:26.387Z,101219.47
2023-02-04T06:49:06.420Z,101199.69
2023-02-04T06:49:46.348Z,101233.16
2023-02-04T06:50:26.420Z,101238.75
2023-02-04T06:51:06.353Z,101213.88
2023-02-04T06:51:46.484Z,101216.06
2023-02-04T06:52:26.349Z,101232.47
2023-02-04T06:53:06.390Z,101227.31
2023-02-04T06:53:47.365Z,101216.25
2023-02-04T06:54:27.439Z,101227.63
2023-02-04T06:55:07.350Z,101253.50
2023-02-04T06:55:48.438Z,101225.19
2023-02-04T06:56:28.349Z,101255.00
2023-02-04T06:57:08.470Z,101227.59
2023-02-04T06:57:49.343Z,101254.47
2023-02-04T06:58:29.415Z,101244.72
2023-02-04T06:59:09.386Z,101242.00
2023-02-04T06:59:49.382Z,101259.22
2023-02-04T07:00:29.602Z,101251.94
2023-02-04T07:01:10.462Z,101261.13
2023-02-04T07:01:50.363Z,101253.44
2023-02-04T07:02:30.435Z,101265.88
2023-02-04T07:03:11.339Z,101253.38
2023-02-04T07:03:51.410Z,101271.69
2023-02-04T07:04:31.347Z,101273.16
2023-02-04T07:05:12.395Z,101275.00
2023-02-04T07:05:52.318Z,101259.38
2023-02-04T07:06:32.403Z,101252.16
2023-02-04T07:07:12.352Z,101278.41
2023-02-04T07:07:52.450Z,101286.38
2023-02-04T07:08:32.344Z,101267.13
2023-02-04T07:09:12.387Z,101287.94
2023-02-04T07:09:52.362Z,101259.63
2023-02-04T07:10:32.951Z,101297.25
2023-02-04T07:11:14.322Z,101291.94
2023-02-04T07:11:54.554Z,101288.03
2023-02-04T07:12:34.321Z,101277.88
2023-02-04T07:13:14.395Z,101281.22
2023-02-04T07:13:54.343Z,101270.44
2023-02-04T07:14:34.442Z,101290.53
2023-02-04T07:15:15.357Z,101307.94
2023-02-04T07:15:55.481Z,101285.38
2023-02-04T07:16:35.356Z,101288.50
2023-02-04T07:17:15.388Z,101278.78
2023-02-04T07:17:55.318Z,101295.97
2023-02-04T07:18:35.421Z,101304.72
2023-02-04T07:19:15.313Z,101292.84
2023-02-04T07:19:56.303Z,101267.25
2023-02-04T07:20:36.348Z,101286.94
2023-02-04T07:21:16.395Z,101293.94
2023-02-04T07:22:00.326Z,101298.31
2023-02-04T07:22:41.131Z,101307.34
2023-02-04T07:23:21.322Z,101306.06
2023-02-04T07:24:01.378Z,101300.88
2023-02-04T07:24:42.336Z,101320.94
2023-02-04T07:25:22.420Z,101312.97
2023-02-04T07:26:04.329Z,101294.56
2023-02-04T07:26:44.419Z,101324.59
2023-02-04T07:27:24.329Z,101337.91
2023-02-04T07:28:05.588Z,101342.28
2023-02-04T07:28:47.316Z,101345.44
2023-02-04T07:29:27.384Z,101345.09
2023-02-04T07:30:07.307Z,101341.53
2023-02-04T07:30:47.504Z,101323.78
2023-02-04T07:31:27.401Z,101325.75
2023-02-04T07:32:07.466Z,101335.22
2023-02-04T07:32:47.298Z,101315.50
2023-02-04T07:33:27.440Z,101322.59
2023-02-04T07:34:07.320Z,101310.53
2023-02-04T07:34:48.099Z,101340.81
2023-02-04T07:35:28.317Z,101358.41
2023-02-04T07:36:08.380Z,101355.75
2023-02-04T07:36:48.359Z,101368.63
2023-02-04T07:37:29.383Z,101354.66
2023-02-04T07:38:09.297Z,101345.16
2023-02-04T07:38:49.380Z,101355.56
2023-02-04T07:39:29.312Z,101358.09
2023-02-04T07:40:09.374Z,101373.47
2023-02-04T07:40:49.314Z,101386.53
2023-02-04T07:41:30.366Z,101383.13
2023-02-04T07:42:10.329Z,101369.09
2023-02-04T07:42:50.360Z,101368.63
2023-02-04T07:43:30.289Z,101381.69
2023-02-04T07:44:11.351Z,101401.59
2023-02-04T07:44:51.284Z,101398.66
2023-02-04T07:45:31.335Z,101399.78
2023-02-04T07:46:12.320Z,101394.81
2023-02-04T07:46:52.347Z,101405.78
2023-02-04T07:47:32.312Z,101400.66
2023-02-04T07:48:12.426Z,101407.72
2023-02-04T07:48:52.282Z,101408.78
2023-02-04T07:49:32.442Z,101401.34
2023-02-04T07:50:13.276Z,101399.75
2023-02-04T07:50:53.335Z,101384.00
2023-02-04T07:51:33.260Z,101397.06